Weather observations for the past three days for
Hilton Head Island, Hilton Head Airport
Imperial (Metric)
Date Time (edt) Wind (mph) Vis. (mi.) Weather Sky Cond. Temperature (ºF) Relative Humidity Wind Chill (°F) Heat Index (°F) Pressure Precipitation (in)
Air Dwpt 6 hour altimeter (in) sea level (mb) 1 hr 3 hr 6 hr
Max. Min.
06 12:50 S 8 G 16 10.00 Fair CLR 77 66.2 69% 79 30.05 0.0
06 11:50 S 8 G 15 10.00 Fair CLR 77 64.4 65% 79 30.06 0.0
06 10:50 SW 10 10.00 Fair CLR 78.8 62.6 58% 80 30.06 0.0
06 09:50 SW 13 10.00 Fair CLR 75.2 66.2 74% 77 30.05 0.0
06 08:50 SW 9 G 15 10.00 Fair CLR 73.4 66.2 78% 30.04 0.0
06 07:50 SW 7 10.00 Fair CLR 71.6 66.2 83% 30.02 0.0
06 06:50 S 5 10.00 Fair CLR 68 66.2 94% 30.01 0.0
06 06:35 S 3 10.00 Fair CLR 66.2 64.4 94% 30.02 0.0
06 06:15 S 6 10.00 Fair CLR 68 64.4 88% 30.01 0.0
06 05:55 S 5 10.00 Fair CLR 68 64.4 88% 30.01 0.0
06 05:35 S 6 10.00 Fair CLR 68 64.4 88% 30.01 0.0
06 05:15 S 5 10.00 Fair CLR 68 64.4 88% 30.01 0.0
06 04:55 S 6 10.00 Fair CLR 69.8 64.4 83% 30 0.0
06 04:35 S 7 10.00 Fair CLR 69.8 62.6 78% 30.01 0.0
06 04:15 Vrbl 6 10.00 Fair CLR 69.8 62.6 78% 30 0.0
06 03:55 S 8 10.00 Fair CLR 69.8 62.6 78% 30 0.0 0.01
06 03:35 S 9 10.00 Fair CLR 69.8 62.6 78% 30.01 0.0
06 03:15 S 7 10.00 Fair CLR 69.8 62.6 78% 30.01 0.0
06 02:55 S 8 10.00 Fair CLR 69.8 62.6 78% 30 0.0
06 02:35 S 8 G 14 10.00 Fair CLR 69.8 62.6 78% 30.01 0.0
06 02:15 S 8 10.00 Fair CLR 69.8 60.8 73% 30.02 0.0
06 01:55 S 8 G 14 10.00 Fair CLR 69.8 60.8 73% 30.02 0.0 0.01
06 01:15 Vrbl 7 10.00 Fair CLR 69.8 59 69% 30.03 0.0
06 00:55 Vrbl 8 10.00 Fair CLR 69.8 57.2 64% 30.03 0.0
06 00:35 S 7 10.00 Fair CLR 69.8 57.2 64% 30.03 0.0
06 00:15 S 7 10.00 Fair CLR 69.8 57.2 64% 30.04 0.0
05 23:55 S 7 G 14 10.00 Fair CLR 69.8 57.2 64% 30.04 0.0 0.01
05 23:35 S 10 10.00 Fair CLR 69.8 57.2 64% 30.04 0.0
05 23:15 Vrbl 6 10.00 Fair CLR 69.8 57.2 64% 30.04 0.0
05 22:55 Vrbl 7 10.00 Fair CLR 69.8 57.2 64% 30.04 0.0
05 22:35 S 8 G 14 10.00 Fair CLR 69.8 57.2 64% 30.04 0.0
05 22:15 Vrbl 3 G 12 10.00 Fair CLR 69.8 57.2 64% 30.03 0.0
05 21:55 Vrbl 5 G 14 10.00 Fair CLR 69.8 57.2 64% 30.03 0.0
05 21:35 Vrbl 3 10.00 Fair CLR 69.8 55.4 60% 30.03 0.0
05 21:15 Vrbl 5 10.00 Fair CLR 69.8 55.4 60% 30.04 0.0
05 20:50 Vrbl 5 G 12 10.00 Fair CLR 69.8 57.2 64% 30.02 0.0
05 19:51 Vrbl 5 G 13 10.00 Fair CLR 69.8 53.6 57% 30.03 0.0
05 18:50 Vrbl 7 G 18 10.00 Fair CLR 73.4 55.4 53% 30.02 0.0
05 17:50 Vrbl 7 G 14 10.00 Fair CLR 73.4 55.4 53% 30.03 0.0
05 16:50 Vrbl 7 G 14 10.00 Fair CLR 75.2 53.6 47% 78 30.03 0.0
05 15:50 Vrbl 5 G 17 10.00 Fair CLR 73.4 57.2 57% 30.05 0.0
05 14:50 S 8 G 18 10.00 Fair CLR 73.4 55.4 53% 30.08 0.0
05 13:51 S 9 G 17 10.00 Fair CLR 75.2 57.2 54% 78 30.08 0.0
05 12:50 SE 8 G 14 10.00 Fair CLR 75.2 57.2 54% 78 30.07 0.0
05 11:50 S 6 G 15 10.00 Fair CLR 73.4 57.2 57% 30.09 0.0
05 10:50 S 12 10.00 Fair CLR 73.4 55.4 53% 30.08 0.0
05 09:50 S 7 G 13 10.00 Fair CLR 71.6 59 65% 30.08 0.0
05 08:50 S 7 10.00 Fair CLR 71.6 57.2 61% 30.07 0.0
05 07:50 Calm 10.00 Fair CLR 62.6 57.2 83% 30.06 0.0
05 06:50 Calm 10.00 Fair CLR 57.2 53.6 88% 30.05 0.0
05 06:35 Calm 10.00 Fair CLR 59 53.6 82% 30.04 0.0
05 06:15 Calm 10.00 Fair CLR 59 53.6 82% 30.04 0.0
05 05:55 Calm 10.00 Fair CLR 60.8 53.6 77% 30.04 0.0
05 05:35 Calm 10.00 Fair CLR 62.6 53.6 73% 30.03 0.0
05 05:15 Calm 10.00 Fair CLR 64.4 53.6 68% 30.03 0.0
05 04:55 S 6 10.00 Fair CLR 66.2 53.6 64% 30.02 0.0
05 04:35 S 6 10.00 Fair CLR 66.2 53.6 64% 30.02 0.0
05 04:15 S 6 G 12 10.00 Fair CLR 66.2 53.6 64% 30.01 0.0
05 03:55 S 7 10.00 Fair CLR 66.2 53.6 64% 30.01 0.0
05 03:35 Vrbl 6 G 14 10.00 Fair CLR 68 53.6 60% 30.01 0.0
05 03:15 S 7 G 16 10.00 Fair CLR 68 53.6 60% 30.01 0.0
05 02:55 S 7 G 13 10.00 Fair CLR 68 53.6 60% 30.02 0.0
05 02:35 Vrbl 7 G 13 10.00 Fair CLR 68 53.6 60% 30.02 0.0
05 02:15 S 9 10.00 Fair CLR 68 53.6 60% 30.03 0.0
05 01:55 S 8 G 14 10.00 Fair CLR 68 53.6 60% 30.04 0.0
05 01:35 S 12 G 18 10.00 Fair CLR 68 53.6 60% 30.05 0.0
05 01:15 S 8 G 18 10.00 Fair CLR 68 53.6 60% 30.05 0.0
05 00:55 S 9 G 17 10.00 Fair CLR 68 53.6 60% 30.06 0.0
05 00:35 S 9 G 17 10.00 Fair CLR 68 53.6 60% 30.06 0.0
05 00:15 S 9 10.00 Fair CLR 68 53.6 60% 30.06 0.0
04 23:55 S 10 10.00 Fair CLR 68 53.6 60% 30.06 0.0 0.01
04 23:35 Vrbl 8 G 16 10.00 Fair CLR 68 53.6 60% 30.06 0.0
04 23:15 S 9 10.00 Fair CLR 68 55.4 64% 30.07 0.0
04 22:55 S 10 10.00 Fair CLR 68 55.4 64% 30.06 0.0
04 22:35 S 8 10.00 Fair CLR 68 53.6 60% 30.06 0.0
04 22:15 S 8 10.00 Fair CLR 68 53.6 60% 30.06 0.0
04 21:55 S 8 10.00 Fair CLR 68 51.8 56% 30.05 0.0
04 21:35 S 6 10.00 Fair CLR 68 51.8 56% 30.05 0.0
04 21:15 S 7 10.00 Fair CLR 68 51.8 56% 30.05 0.0
04 18:50 Vrbl 6 G 14 10.00 Fair CLR 71.6 48.2 44% 30.04 0.0
04 17:50 S 12 10.00 Fair CLR 73.4 48.2 41% 30.05 0.0
04 14:50 Vrbl 8 G 18 10.00 A Few Clouds FEW055 73.4 53.6 50% 30.07 0.0
04 12:50 S 7 10.00 A Few Clouds FEW055 73.4 50 44% 30.09 0.0
04 11:50 Calm 10.00 A Few Clouds FEW050 71.6 55.4 57% 30.1 0.0
04 10:50 Calm 10.00 Fair CLR 71.6 50 47% 30.1 0.0
04 09:50 Vrbl 6 10.00 Fair CLR 69.8 51.8 53% 30.1 0.0
04 08:50 Calm 10.00 Fair CLR 66.2 55.4 68% 30.1 0.0
04 07:50 Calm 10.00 Fair CLR 57.2 55.4 94% 30.09 0.0
04 06:50 Calm 10.00 Fair CLR 51.8 51.8 100% 30.08 0.0
04 06:35 Calm 10.00 Fair CLR 51.8 51.8 100% 30.07 0.0
04 06:15 Calm 10.00 Fair CLR 53.6 51.8 94% 30.07 0.0
04 05:55 Calm 10.00 Fair CLR 53.6 51.8 94% 30.07 0.0
04 05:15 Calm 10.00 Fair CLR 53.6 51.8 94% 30.07 0.0
04 04:55 Calm 10.00 Fair CLR 55.4 53.6 94% 30.08 0.0
04 04:35 Calm 10.00 Fair CLR 55.4 53.6 94% 30.08 0.0
04 04:15 Calm 10.00 Fair CLR 55.4 53.6 94% 30.08 0.0
04 03:55 Calm 10.00 Fair CLR 55.4 51.8 88% 30.09 0.0
04 03:35 Calm 10.00 Fair CLR 57.2 53.6 88% 30.09 0.0
04 03:15 Calm 10.00 Fair CLR 57.2 51.8 82% 30.09 0.0
04 02:55 Calm 10.00 Fair CLR 57.2 51.8 82% 30.09 0.0 0.01
04 02:35 Calm 10.00 Fair CLR 57.2 51.8 82% 30.09 0.0
04 02:15 Calm 10.00 Fair CLR 57.2 51.8 82% 30.09 0.0
04 01:55 Calm 10.00 Fair CLR 57.2 51.8 82% 30.1 0.0
04 01:35 Calm 10.00 Fair CLR 59 51.8 77% 30.1 0.0
04 01:15 Calm 10.00 Fair CLR 59 51.8 77% 30.1 0.0
04 00:55 Calm 10.00 Fair CLR 60.8 50 68% 30.1 0.0
04 00:35 Calm 10.00 Fair CLR 60.8 50 68% 30.1 0.0
04 00:15 Calm 10.00 Fair CLR 62.6 50 64% 30.1 0.0
03 23:55 S 5 10.00 Fair CLR 62.6 50 64% 30.1 0.0
03 23:35 S 7 10.00 Fair CLR 64.4 48.2 56% 30.1 0.0
03 23:16 S 6 10.00 Fair CLR 64.4 48.2 56% 30.1 0.0
03 22:55 S 7 10.00 Fair CLR 64.4 48.2 56% 30.1 0.0 0.01
03 22:35 S 6 10.00 Fair CLR 64.4 48.2 56% 30.1 0.0
03 22:15 S 8 10.00 Fair CLR 64.4 48.2 56% 30.1 0.0
03 21:55 S 7 10.00 Fair CLR 64.4 48.2 56% 30.09 0.0
03 21:35 S 7 10.00 Fair CLR 64.4 48.2 56% 30.09 0.0
03 21:15 S 7 10.00 Fair CLR 64.4 48.2 56% 30.09 0.0
03 20:50 S 8 10.00 Fair CLR 64.4 48.2 56% 30.08 0.0
03 19:50 S 6 G 13 10.00 Fair CLR 66.2 48.2 52% 30.07 0.0
03 18:50 S 5 G 15 10.00 Fair CLR 66.2 46.4 49% 30.07 0.0
03 17:51 S 7 G 13 10.00 Fair CLR 66.2 46.4 49% 30.07 0.0
03 16:51 S 6 G 14 10.00 Fair CLR 68 46.4 46% 30.07 0.0
03 15:55 S 8 10.00 A Few Clouds FEW055 68 46.4 46% 30.09 0.0
03 14:50 SE 6 G 12 10.00 A Few Clouds FEW055 66.2 44.6 46% 30.12 0.0
03 13:50 Vrbl 5 10.00 A Few Clouds FEW060 66.2 44.6 46% 30.14 0.0
Date Time (edt) Wind (mph) Vis. (mi.) Weather Sky Cond. Air Dwpt Max. Min. Relative Humidity Wind Chill (°F) Heat Index (°F) altimeter (in) sea level (mb) 1 hr 3 hr 6 hr
6 hour
Temperature (ºF) Pressure Precipitation (in)